sensor_id;sensor_type;location;lat;lon;timestamp;P1;durP1;ratioP1;P2;durP2;ratioP2
20393;SDS011;10356;50.544;9.642;2023-10-13T00:00:25;39.78;;;22.67;;
20393;SDS011;10356;50.544;9.642;2023-10-13T00:02:55;33.65;;;22.88;;
20393;SDS011;10356;50.544;9.642;2023-10-13T00:05:25;39.38;;;23.80;;
20393;SDS011;10356;50.544;9.642;2023-10-13T00:07:52;38.00;;;23.88;;
20393;SDS011;10356;50.544;9.642;2023-10-13T00:10:19;37.78;;;23.52;;
20393;SDS011;10356;50.544;9.642;2023-10-13T00:12:46;39.97;;;23.50;;
20393;SDS011;10356;50.544;9.642;2023-10-13T00:15:16;34.53;;;23.35;;
20393;SDS011;10356;50.544;9.642;2023-10-13T00:17:43;40.88;;;23.70;;
20393;SDS011;10356;50.544;9.642;2023-10-13T00:20:10;35.10;;;22.65;;
20393;SDS011;10356;50.544;9.642;2023-10-13T00:22:58;31.92;;;21.35;;
20393;SDS011;10356;50.544;9.642;2023-10-13T00:25:24;32.35;;;21.23;;
20393;SDS011;10356;50.544;9.642;2023-10-13T00:27:56;34.80;;;20.85;;
20393;SDS011;10356;50.544;9.642;2023-10-13T00:30:27;30.15;;;21.15;;
20393;SDS011;10356;50.544;9.642;2023-10-13T00:32:59;32.22;;;20.17;;
20393;SDS011;10356;50.544;9.642;2023-10-13T00:35:26;31.08;;;20.23;;
20393;SDS011;10356;50.544;9.642;2023-10-13T00:37:54;35.65;;;20.25;;
20393;SDS011;10356;50.544;9.642;2023-10-13T00:40:22;31.30;;;19.63;;
20393;SDS011;10356;50.544;9.642;2023-10-13T00:43:07;32.45;;;19.73;;
20393;SDS011;10356;50.544;9.642;2023-10-13T00:45:53;32.97;;;19.42;;
20393;SDS011;10356;50.544;9.642;2023-10-13T00:48:22;28.60;;;18.85;;
20393;SDS011;10356;50.544;9.642;2023-10-13T00:50:54;29.25;;;18.88;;
20393;SDS011;10356;50.544;9.642;2023-10-13T00:53:22;30.08;;;18.20;;
20393;SDS011;10356;50.544;9.642;2023-10-13T00:55:50;29.63;;;18.45;;
20393;SDS011;10356;50.544;9.642;2023-10-13T00:58:17;29.13;;;18.67;;
20393;SDS011;10356;50.544;9.642;2023-10-13T01:00:47;27.20;;;17.95;;
20393;SDS011;10356;50.544;9.642;2023-10-13T01:03:22;27.52;;;17.45;;
20393;SDS011;10356;50.544;9.642;2023-10-13T01:05:52;29.25;;;17.33;;
20393;SDS011;10356;50.544;9.642;2023-10-13T01:08:30;25.80;;;15.77;;
20393;SDS011;10356;50.544;9.642;2023-10-13T01:10:59;27.65;;;16.17;;
20393;SDS011;10356;50.544;9.642;2023-10-13T01:13:26;28.35;;;17.27;;
20393;SDS011;10356;50.544;9.642;2023-10-13T01:15:52;23.85;;;15.75;;
20393;SDS011;10356;50.544;9.642;2023-10-13T01:18:18;28.40;;;15.90;;
20393;SDS011;10356;50.544;9.642;2023-10-13T01:20:46;28.00;;;14.95;;
20393;SDS011;10356;50.544;9.642;2023-10-13T01:23:18;31.25;;;16.60;;
20393;SDS011;10356;50.544;9.642;2023-10-13T01:25:44;21.23;;;14.75;;
20393;SDS011;10356;50.544;9.642;2023-10-13T01:28:11;26.75;;;14.32;;
20393;SDS011;10356;50.544;9.642;2023-10-13T01:30:41;21.48;;;13.45;;
20393;SDS011;10356;50.544;9.642;2023-10-13T01:33:08;30.50;;;14.65;;
20393;SDS011;10356;50.544;9.642;2023-10-13T01:35:35;25.67;;;14.40;;
20393;SDS011;10356;50.544;9.642;2023-10-13T01:38:07;24.10;;;14.45;;
20393;SDS011;10356;50.544;9.642;2023-10-13T01:40:34;27.42;;;14.02;;
20393;SDS011;10356;50.544;9.642;2023-10-13T01:43:00;25.17;;;15.18;;
20393;SDS011;10356;50.544;9.642;2023-10-13T01:45:26;23.33;;;13.57;;
20393;SDS011;10356;50.544;9.642;2023-10-13T01:47:55;23.42;;;14.13;;
20393;SDS011;10356;50.544;9.642;2023-10-13T01:50:21;24.17;;;13.98;;
20393;SDS011;10356;50.544;9.642;2023-10-13T01:52:54;20.52;;;11.95;;
20393;SDS011;10356;50.544;9.642;2023-10-13T01:55:31;22.70;;;13.95;;
20393;SDS011;10356;50.544;9.642;2023-10-13T01:58:05;23.77;;;14.23;;
20393;SDS011;10356;50.544;9.642;2023-10-13T02:00:39;19.83;;;13.07;;
20393;SDS011;10356;50.544;9.642;2023-10-13T02:03:07;20.15;;;12.48;;
20393;SDS011;10356;50.544;9.642;2023-10-13T02:05:39;19.05;;;12.20;;
20393;SDS011;10356;50.544;9.642;2023-10-13T02:08:09;21.45;;;11.85;;
20393;SDS011;10356;50.544;9.642;2023-10-13T02:10:36;24.63;;;12.68;;
20393;SDS011;10356;50.544;9.642;2023-10-13T02:13:09;19.60;;;12.07;;
20393;SDS011;10356;50.544;9.642;2023-10-13T02:15:41;20.52;;;12.10;;
20393;SDS011;10356;50.544;9.642;2023-10-13T02:18:09;19.77;;;12.32;;
20393;SDS011;10356;50.544;9.642;2023-10-13T02:20:35;25.00;;;11.93;;
20393;SDS011;10356;50.544;9.642;2023-10-13T02:23:08;20.30;;;12.45;;
20393;SDS011;10356;50.544;9.642;2023-10-13T02:25:35;22.55;;;11.95;;
20393;SDS011;10356;50.544;9.642;2023-10-13T02:28:08;18.67;;;11.57;;
20393;SDS011;10356;50.544;9.642;2023-10-13T02:30:38;23.40;;;12.18;;
20393;SDS011;10356;50.544;9.642;2023-10-13T02:33:09;21.98;;;12.88;;
20393;SDS011;10356;50.544;9.642;2023-10-13T02:35:36;21.17;;;12.45;;
20393;SDS011;10356;50.544;9.642;2023-10-13T02:38:15;20.60;;;12.40;;
20393;SDS011;10356;50.544;9.642;2023-10-13T02:40:41;22.30;;;12.68;;
20393;SDS011;10356;50.544;9.642;2023-10-13T02:43:09;23.67;;;12.75;;
20393;SDS011;10356;50.544;9.642;2023-10-13T02:45:35;19.88;;;12.30;;
20393;SDS011;10356;50.544;9.642;2023-10-13T02:48:02;25.25;;;13.00;;
20393;SDS011;10356;50.544;9.642;2023-10-13T02:50:41;20.10;;;12.60;;
20393;SDS011;10356;50.544;9.642;2023-10-13T02:53:10;19.95;;;12.75;;
20393;SDS011;10356;50.544;9.642;2023-10-13T02:55:48;20.52;;;12.30;;
20393;SDS011;10356;50.544;9.642;2023-10-13T02:58:17;18.40;;;12.02;;
20393;SDS011;10356;50.544;9.642;2023-10-13T03:00:43;24.92;;;12.13;;
20393;SDS011;10356;50.544;9.642;2023-10-13T03:03:10;21.25;;;11.93;;
20393;SDS011;10356;50.544;9.642;2023-10-13T03:05:39;17.13;;;11.20;;
20393;SDS011;10356;50.544;9.642;2023-10-13T03:08:07;19.98;;;11.85;;
20393;SDS011;10356;50.544;9.642;2023-10-13T03:10:34;21.30;;;12.38;;
20393;SDS011;10356;50.544;9.642;2023-10-13T03:13:05;22.77;;;11.43;;
20393;SDS011;10356;50.544;9.642;2023-10-13T03:15:34;23.67;;;11.65;;
20393;SDS011;10356;50.544;9.642;2023-10-13T03:18:00;20.65;;;11.35;;
20393;SDS011;10356;50.544;9.642;2023-10-13T03:20:27;18.98;;;11.30;;
20393;SDS011;10356;50.544;9.642;2023-10-13T03:22:56;27.70;;;12.38;;
20393;SDS011;10356;50.544;9.642;2023-10-13T03:25:23;19.98;;;10.90;;
20393;SDS011;10356;50.544;9.642;2023-10-13T03:27:54;18.33;;;11.45;;
20393;SDS011;10356;50.544;9.642;2023-10-13T03:30:30;15.80;;;10.95;;
20393;SDS011;10356;50.544;9.642;2023-10-13T03:33:05;23.02;;;11.15;;
20393;SDS011;10356;50.544;9.642;2023-10-13T03:35:33;20.80;;;11.75;;
20393;SDS011;10356;50.544;9.642;2023-10-13T03:38:05;20.63;;;11.25;;
20393;SDS011;10356;50.544;9.642;2023-10-13T03:40:39;18.65;;;11.07;;
20393;SDS011;10356;50.544;9.642;2023-10-13T03:43:06;18.58;;;11.25;;
20393;SDS011;10356;50.544;9.642;2023-10-13T03:45:35;21.60;;;11.35;;
20393;SDS011;10356;50.544;9.642;2023-10-13T03:48:05;21.63;;;11.45;;
20393;SDS011;10356;50.544;9.642;2023-10-13T03:50:46;20.92;;;11.52;;
20393;SDS011;10356;50.544;9.642;2023-10-13T03:53:23;20.02;;;10.45;;
20393;SDS011;10356;50.544;9.642;2023-10-13T03:55:50;16.15;;;11.13;;
20393;SDS011;10356;50.544;9.642;2023-10-13T03:58:33;21.00;;;11.18;;
20393;SDS011;10356;50.544;9.642;2023-10-13T04:01:00;17.15;;;10.32;;
20393;SDS011;10356;50.544;9.642;2023-10-13T04:03:30;20.42;;;10.50;;
20393;SDS011;10356;50.544;9.642;2023-10-13T04:06:00;18.30;;;10.50;;
20393;SDS011;10356;50.544;9.642;2023-10-13T04:08:31;16.77;;;11.52;;
20393;SDS011;10356;50.544;9.642;2023-10-13T04:11:33;15.30;;;11.15;;
20393;SDS011;10356;50.544;9.642;2023-10-13T04:14:40;20.50;;;10.80;;
20393;SDS011;10356;50.544;9.642;2023-10-13T04:17:21;19.63;;;10.80;;
20393;SDS011;10356;50.544;9.642;2023-10-13T04:19:54;16.75;;;10.45;;
20393;SDS011;10356;50.544;9.642;2023-10-13T04:22:37;19.02;;;10.95;;
20393;SDS011;10356;50.544;9.642;2023-10-13T04:25:19;18.48;;;11.38;;
20393;SDS011;10356;50.544;9.642;2023-10-13T04:28:04;21.63;;;11.00;;
20393;SDS011;10356;50.544;9.642;2023-10-13T04:30:40;25.08;;;11.73;;
20393;SDS011;10356;50.544;9.642;2023-10-13T04:33:22;18.15;;;10.50;;
20393;SDS011;10356;50.544;9.642;2023-10-13T04:36:02;22.58;;;11.10;;
20393;SDS011;10356;50.544;9.642;2023-10-13T04:38:39;21.38;;;12.32;;
20393;SDS011;10356;50.544;9.642;2023-10-13T04:41:20;18.67;;;10.57;;
20393;SDS011;10356;50.544;9.642;2023-10-13T04:43:48;23.48;;;10.57;;
20393;SDS011;10356;50.544;9.642;2023-10-13T04:46:30;19.15;;;11.45;;
20393;SDS011;10356;50.544;9.642;2023-10-13T04:49:19;17.88;;;11.38;;
20393;SDS011;10356;50.544;9.642;2023-10-13T04:51:55;21.80;;;10.75;;
20393;SDS011;10356;50.544;9.642;2023-10-13T04:54:24;15.82;;;10.48;;
20393;SDS011;10356;50.544;9.642;2023-10-13T04:56:59;17.42;;;10.50;;
20393;SDS011;10356;50.544;9.642;2023-10-13T04:59:39;24.77;;;10.57;;
20393;SDS011;10356;50.544;9.642;2023-10-13T05:02:20;19.45;;;10.65;;
20393;SDS011;10356;50.544;9.642;2023-10-13T05:05:05;24.83;;;11.43;;
20393;SDS011;10356;50.544;9.642;2023-10-13T05:08:09;24.67;;;10.32;;
20393;SDS011;10356;50.544;9.642;2023-10-13T05:10:53;18.55;;;9.85;;
20393;SDS011;10356;50.544;9.642;2023-10-13T05:13:37;15.13;;;9.52;;
20393;SDS011;10356;50.544;9.642;2023-10-13T05:16:21;24.77;;;10.40;;
20393;SDS011;10356;50.544;9.642;2023-10-13T05:19:06;19.58;;;9.60;;
20393;SDS011;10356;50.544;9.642;2023-10-13T05:21:50;17.17;;;8.82;;
20393;SDS011;10356;50.544;9.642;2023-10-13T05:24:35;15.65;;;9.48;;
20393;SDS011;10356;50.544;9.642;2023-10-13T05:27:20;15.10;;;9.45;;
20393;SDS011;10356;50.544;9.642;2023-10-13T05:30:04;17.70;;;9.43;;
20393;SDS011;10356;50.544;9.642;2023-10-13T05:32:49;24.38;;;9.90;;
20393;SDS011;10356;50.544;9.642;2023-10-13T05:35:33;17.83;;;10.40;;
20393;SDS011;10356;50.544;9.642;2023-10-13T05:38:17;15.88;;;9.63;;
20393;SDS011;10356;50.544;9.642;2023-10-13T05:41:03;16.63;;;9.30;;
20393;SDS011;10356;50.544;9.642;2023-10-13T05:43:49;19.02;;;9.68;;
20393;SDS011;10356;50.544;9.642;2023-10-13T05:46:33;22.25;;;10.07;;
20393;SDS011;10356;50.544;9.642;2023-10-13T05:49:26;17.83;;;9.73;;
20393;SDS011;10356;50.544;9.642;2023-10-13T05:52:14;18.45;;;9.32;;
20393;SDS011;10356;50.544;9.642;2023-10-13T05:55:01;24.65;;;8.73;;
20393;SDS011;10356;50.544;9.642;2023-10-13T05:57:54;17.55;;;8.75;;
20393;SDS011;10356;50.544;9.642;2023-10-13T06:00:39;19.77;;;9.05;;
20393;SDS011;10356;50.544;9.642;2023-10-13T06:03:25;19.40;;;9.65;;
20393;SDS011;10356;50.544;9.642;2023-10-13T06:06:09;16.08;;;8.98;;
20393;SDS011;10356;50.544;9.642;2023-10-13T06:08:54;18.52;;;8.95;;
20393;SDS011;10356;50.544;9.642;2023-10-13T06:11:38;15.98;;;9.18;;
20393;SDS011;10356;50.544;9.642;2023-10-13T06:14:23;17.60;;;9.25;;
20393;SDS011;10356;50.544;9.642;2023-10-13T06:17:07;15.85;;;8.93;;
20393;SDS011;10356;50.544;9.642;2023-10-13T06:19:52;18.05;;;8.73;;
20393;SDS011;10356;50.544;9.642;2023-10-13T06:22:36;14.20;;;8.20;;
20393;SDS011;10356;50.544;9.642;2023-10-13T06:25:20;17.00;;;8.57;;
20393;SDS011;10356;50.544;9.642;2023-10-13T06:28:04;22.35;;;10.70;;
20393;SDS011;10356;50.544;9.642;2023-10-13T06:30:58;88.70;;;75.25;;
20393;SDS011;10356;50.544;9.642;2023-10-13T06:33:26;25.45;;;15.73;;
20393;SDS011;10356;50.544;9.642;2023-10-13T06:35:55;24.95;;;17.88;;
20393;SDS011;10356;50.544;9.642;2023-10-13T06:38:23;16.70;;;9.40;;
20393;SDS011;10356;50.544;9.642;2023-10-13T06:40:52;13.73;;;8.10;;
20393;SDS011;10356;50.544;9.642;2023-10-13T06:43:18;16.13;;;8.75;;
20393;SDS011;10356;50.544;9.642;2023-10-13T06:45:47;13.05;;;7.25;;
20393;SDS011;10356;50.544;9.642;2023-10-13T06:48:23;14.48;;;8.57;;
20393;SDS011;10356;50.544;9.642;2023-10-13T06:50:50;17.05;;;8.88;;
20393;SDS011;10356;50.544;9.642;2023-10-13T06:53:18;15.30;;;7.80;;
20393;SDS011;10356;50.544;9.642;2023-10-13T06:55:44;18.05;;;8.73;;
20393;SDS011;10356;50.544;9.642;2023-10-13T06:58:14;19.85;;;8.45;;
20393;SDS011;10356;50.544;9.642;2023-10-13T07:00:42;14.40;;;7.38;;
20393;SDS011;10356;50.544;9.642;2023-10-13T07:03:18;12.60;;;7.90;;
20393;SDS011;10356;50.544;9.642;2023-10-13T07:05:46;15.52;;;7.45;;
20393;SDS011;10356;50.544;9.642;2023-10-13T07:08:14;17.45;;;7.93;;
20393;SDS011;10356;50.544;9.642;2023-10-13T07:10:48;13.40;;;7.72;;
20393;SDS011;10356;50.544;9.642;2023-10-13T07:13:16;18.65;;;9.75;;
20393;SDS011;10356;50.544;9.642;2023-10-13T07:15:44;18.13;;;8.85;;
20393;SDS011;10356;50.544;9.642;2023-10-13T07:18:11;14.15;;;6.68;;
20393;SDS011;10356;50.544;9.642;2023-10-13T07:20:40;18.65;;;7.40;;
20393;SDS011;10356;50.544;9.642;2023-10-13T07:23:12;22.20;;;12.25;;
20393;SDS011;10356;50.544;9.642;2023-10-13T07:25:43;15.90;;;8.35;;
20393;SDS011;10356;50.544;9.642;2023-10-13T07:28:17;18.48;;;7.68;;
20393;SDS011;10356;50.544;9.642;2023-10-13T07:30:43;14.00;;;7.60;;
20393;SDS011;10356;50.544;9.642;2023-10-13T07:33:14;14.20;;;7.78;;
20393;SDS011;10356;50.544;9.642;2023-10-13T07:35:44;16.15;;;10.32;;
20393;SDS011;10356;50.544;9.642;2023-10-13T07:38:16;13.30;;;7.43;;
20393;SDS011;10356;50.544;9.642;2023-10-13T07:40:46;15.82;;;7.43;;
20393;SDS011;10356;50.544;9.642;2023-10-13T07:43:16;11.38;;;6.90;;
20393;SDS011;10356;50.544;9.642;2023-10-13T07:45:46;13.80;;;6.78;;
20393;SDS011;10356;50.544;9.642;2023-10-13T07:48:16;15.82;;;6.93;;
20393;SDS011;10356;50.544;9.642;2023-10-13T07:50:46;19.75;;;7.28;;
20393;SDS011;10356;50.544;9.642;2023-10-13T07:53:13;14.43;;;6.43;;
20393;SDS011;10356;50.544;9.642;2023-10-13T07:55:50;16.80;;;6.50;;
20393;SDS011;10356;50.544;9.642;2023-10-13T07:58:20;14.27;;;7.03;;
20393;SDS011;10356;50.544;9.642;2023-10-13T08:00:49;16.00;;;7.57;;
20393;SDS011;10356;50.544;9.642;2023-10-13T08:03:20;15.77;;;7.03;;
20393;SDS011;10356;50.544;9.642;2023-10-13T08:06:08;12.13;;;6.15;;
20393;SDS011;10356;50.544;9.642;2023-10-13T08:08:44;13.23;;;6.63;;
20393;SDS011;10356;50.544;9.642;2023-10-13T08:11:16;16.30;;;6.40;;
20393;SDS011;10356;50.544;9.642;2023-10-13T08:13:56;12.85;;;6.05;;
20393;SDS011;10356;50.544;9.642;2023-10-13T08:16:24;11.18;;;6.38;;
20393;SDS011;10356;50.544;9.642;2023-10-13T08:19:10;14.32;;;6.18;;
20393;SDS011;10356;50.544;9.642;2023-10-13T08:21:38;10.23;;;5.95;;
20393;SDS011;10356;50.544;9.642;2023-10-13T08:24:08;12.18;;;5.68;;
20393;SDS011;10356;50.544;9.642;2023-10-13T08:26:35;15.02;;;6.28;;
20393;SDS011;10356;50.544;9.642;2023-10-13T08:29:19;11.50;;;5.57;;
20393;SDS011;10356;50.544;9.642;2023-10-13T08:31:59;12.82;;;6.07;;
20393;SDS011;10356;50.544;9.642;2023-10-13T08:34:46;13.07;;;7.43;;
20393;SDS011;10356;50.544;9.642;2023-10-13T08:37:35;15.35;;;8.50;;
20393;SDS011;10356;50.544;9.642;2023-10-13T08:40:11;13.00;;;6.47;;
20393;SDS011;10356;50.544;9.642;2023-10-13T08:43:04;34.35;;;19.63;;
20393;SDS011;10356;50.544;9.642;2023-10-13T08:45:39;15.20;;;7.90;;
20393;SDS011;10356;50.544;9.642;2023-10-13T08:48:25;38.20;;;29.20;;
20393;SDS011;10356;50.544;9.642;2023-10-13T08:50:57;18.90;;;12.15;;
20393;SDS011;10356;50.544;9.642;2023-10-13T08:53:31;13.45;;;6.45;;
20393;SDS011;10356;50.544;9.642;2023-10-13T08:56:09;14.73;;;5.72;;
20393;SDS011;10356;50.544;9.642;2023-10-13T08:58:41;10.27;;;6.15;;
20393;SDS011;10356;50.544;9.642;2023-10-13T09:01:27;15.07;;;6.25;;
20393;SDS011;10356;50.544;9.642;2023-10-13T09:04:04;8.85;;;5.40;;
20393;SDS011;10356;50.544;9.642;2023-10-13T09:06:53;11.40;;;4.93;;
20393;SDS011;10356;50.544;9.642;2023-10-13T09:09:34;13.80;;;5.20;;
20393;SDS011;10356;50.544;9.642;2023-10-13T09:12:26;11.45;;;5.15;;
20393;SDS011;10356;50.544;9.642;2023-10-13T09:15:05;15.30;;;5.22;;
20393;SDS011;10356;50.544;9.642;2023-10-13T09:17:43;15.35;;;5.60;;
20393;SDS011;10356;50.544;9.642;2023-10-13T09:20:17;10.85;;;5.32;;
20393;SDS011;10356;50.544;9.642;2023-10-13T09:22:56;15.07;;;5.15;;
20393;SDS011;10356;50.544;9.642;2023-10-13T09:25:34;11.07;;;4.97;;
20393;SDS011;10356;50.544;9.642;2023-10-13T09:28:00;10.98;;;4.82;;
20393;SDS011;10356;50.544;9.642;2023-10-13T09:30:28;15.50;;;5.38;;
20393;SDS011;10356;50.544;9.642;2023-10-13T09:32:59;12.43;;;5.07;;
20393;SDS011;10356;50.544;9.642;2023-10-13T09:35:27;10.60;;;4.95;;
20393;SDS011;10356;50.544;9.642;2023-10-13T09:37:56;13.55;;;4.93;;
20393;SDS011;10356;50.544;9.642;2023-10-13T09:40:24;14.10;;;4.75;;
20393;SDS011;10356;50.544;9.642;2023-10-13T09:42:50;10.60;;;4.90;;
20393;SDS011;10356;50.544;9.642;2023-10-13T09:45:20;12.73;;;4.90;;
20393;SDS011;10356;50.544;9.642;2023-10-13T09:47:53;7.75;;;4.60;;
20393;SDS011;10356;50.544;9.642;2023-10-13T09:50:25;19.83;;;5.25;;
20393;SDS011;10356;50.544;9.642;2023-10-13T09:52:58;17.63;;;5.47;;
20393;SDS011;10356;50.544;9.642;2023-10-13T09:55:27;13.45;;;5.25;;
20393;SDS011;10356;50.544;9.642;2023-10-13T09:57:58;13.77;;;5.10;;
20393;SDS011;10356;50.544;9.642;2023-10-13T10:00:35;13.95;;;5.15;;
20393;SDS011;10356;50.544;9.642;2023-10-13T10:03:16;12.63;;;4.75;;
20393;SDS011;10356;50.544;9.642;2023-10-13T10:06:01;12.80;;;5.38;;
20393;SDS011;10356;50.544;9.642;2023-10-13T10:08:38;8.75;;;4.82;;
20393;SDS011;10356;50.544;9.642;2023-10-13T10:11:26;14.18;;;5.10;;
20393;SDS011;10356;50.544;9.642;2023-10-13T10:14:12;15.35;;;4.97;;
20393;SDS011;10356;50.544;9.642;2023-10-13T10:16:45;13.57;;;5.20;;
20393;SDS011;10356;50.544;9.642;2023-10-13T10:19:25;11.05;;;5.32;;
20393;SDS011;10356;50.544;9.642;2023-10-13T10:22:00;12.35;;;5.60;;
20393;SDS011;10356;50.544;9.642;2023-10-13T10:24:30;10.40;;;4.60;;
20393;SDS011;10356;50.544;9.642;2023-10-13T10:26:58;14.27;;;5.75;;
20393;SDS011;10356;50.544;9.642;2023-10-13T10:29:25;9.45;;;4.88;;
20393;SDS011;10356;50.544;9.642;2023-10-13T10:31:52;13.18;;;5.47;;
20393;SDS011;10356;50.544;9.642;2023-10-13T10:34:18;14.05;;;4.90;;
20393;SDS011;10356;50.544;9.642;2023-10-13T10:36:47;13.88;;;5.53;;
20393;SDS011;10356;50.544;9.642;2023-10-13T10:39:19;11.18;;;5.55;;
20393;SDS011;10356;50.544;9.642;2023-10-13T10:41:53;15.00;;;5.60;;
20393;SDS011;10356;50.544;9.642;2023-10-13T10:44:26;13.23;;;5.55;;
20393;SDS011;10356;50.544;9.642;2023-10-13T10:47:08;8.82;;;5.43;;
20393;SDS011;10356;50.544;9.642;2023-10-13T10:49:36;8.00;;;4.90;;
20393;SDS011;10356;50.544;9.642;2023-10-13T10:52:05;14.13;;;5.57;;
20393;SDS011;10356;50.544;9.642;2023-10-13T10:54:43;11.02;;;5.57;;
20393;SDS011;10356;50.544;9.642;2023-10-13T10:57:11;10.10;;;5.75;;
20393;SDS011;10356;50.544;9.642;2023-10-13T10:59:37;11.45;;;5.43;;
20393;SDS011;10356;50.544;9.642;2023-10-13T11:02:04;10.07;;;5.78;;
20393;SDS011;10356;50.544;9.642;2023-10-13T11:04:32;9.65;;;5.35;;
20393;SDS011;10356;50.544;9.642;2023-10-13T11:07:00;15.73;;;5.03;;
20393;SDS011;10356;50.544;9.642;2023-10-13T11:09:27;12.40;;;5.55;;
20393;SDS011;10356;50.544;9.642;2023-10-13T11:12:08;10.98;;;5.43;;
20393;SDS011;10356;50.544;9.642;2023-10-13T11:14:40;10.10;;;5.28;;
20393;SDS011;10356;50.544;9.642;2023-10-13T11:17:07;14.48;;;6.07;;
20393;SDS011;10356;50.544;9.642;2023-10-13T11:19:45;10.15;;;5.50;;
20393;SDS011;10356;50.544;9.642;2023-10-13T11:22:12;10.65;;;5.40;;
20393;SDS011;10356;50.544;9.642;2023-10-13T11:24:55;9.75;;;5.45;;
20393;SDS011;10356;50.544;9.642;2023-10-13T11:27:27;13.40;;;5.43;;
20393;SDS011;10356;50.544;9.642;2023-10-13T11:30:09;8.18;;;5.32;;
20393;SDS011;10356;50.544;9.642;2023-10-13T11:32:39;9.02;;;5.00;;
20393;SDS011;10356;50.544;9.642;2023-10-13T11:35:07;7.35;;;5.03;;
20393;SDS011;10356;50.544;9.642;2023-10-13T11:37:38;11.55;;;5.90;;
20393;SDS011;10356;50.544;9.642;2023-10-13T11:40:10;11.55;;;5.30;;
20393;SDS011;10356;50.544;9.642;2023-10-13T11:42:38;9.07;;;5.13;;
20393;SDS011;10356;50.544;9.642;2023-10-13T11:45:08;9.68;;;5.68;;
20393;SDS011;10356;50.544;9.642;2023-10-13T11:47:53;11.65;;;5.40;;
20393;SDS011;10356;50.544;9.642;2023-10-13T11:50:24;9.73;;;5.50;;
20393;SDS011;10356;50.544;9.642;2023-10-13T11:52:57;7.95;;;5.53;;
20393;SDS011;10356;50.544;9.642;2023-10-13T11:55:26;9.90;;;5.28;;
20393;SDS011;10356;50.544;9.642;2023-10-13T11:57:53;10.98;;;5.32;;
20393;SDS011;10356;50.544;9.642;2023-10-13T12:00:19;8.98;;;5.75;;
20393;SDS011;10356;50.544;9.642;2023-10-13T12:03:11;9.88;;;5.15;;
20393;SDS011;10356;50.544;9.642;2023-10-13T12:05:55;8.77;;;4.97;;
20393;SDS011;10356;50.544;9.642;2023-10-13T12:08:43;8.40;;;4.90;;
20393;SDS011;10356;50.544;9.642;2023-10-13T12:11:15;12.43;;;6.03;;
20393;SDS011;10356;50.544;9.642;2023-10-13T12:13:56;9.88;;;5.10;;
20393;SDS011;10356;50.544;9.642;2023-10-13T12:16:23;9.50;;;5.57;;
20393;SDS011;10356;50.544;9.642;2023-10-13T12:18:59;9.63;;;5.45;;
20393;SDS011;10356;50.544;9.642;2023-10-13T12:21:26;9.80;;;5.55;;
20393;SDS011;10356;50.544;9.642;2023-10-13T12:23:54;8.48;;;5.15;;
20393;SDS011;10356;50.544;9.642;2023-10-13T12:26:22;7.63;;;5.32;;
20393;SDS011;10356;50.544;9.642;2023-10-13T12:28:57;11.73;;;5.38;;
20393;SDS011;10356;50.544;9.642;2023-10-13T12:31:31;10.65;;;5.53;;
20393;SDS011;10356;50.544;9.642;2023-10-13T12:33:58;11.68;;;5.32;;
20393;SDS011;10356;50.544;9.642;2023-10-13T12:36:31;9.73;;;5.32;;
20393;SDS011;10356;50.544;9.642;2023-10-13T12:39:06;11.07;;;4.97;;
20393;SDS011;10356;50.544;9.642;2023-10-13T12:41:51;9.82;;;5.65;;
20393;SDS011;10356;50.544;9.642;2023-10-13T12:44:35;11.07;;;5.47;;
20393;SDS011;10356;50.544;9.642;2023-10-13T12:47:19;8.85;;;5.25;;
20393;SDS011;10356;50.544;9.642;2023-10-13T12:50:04;10.27;;;5.60;;
20393;SDS011;10356;50.544;9.642;2023-10-13T12:52:39;8.80;;;5.70;;
20393;SDS011;10356;50.544;9.642;2023-10-13T12:55:10;14.35;;;5.93;;
20393;SDS011;10356;50.544;9.642;2023-10-13T12:57:41;13.25;;;5.38;;
20393;SDS011;10356;50.544;9.642;2023-10-13T13:00:10;11.57;;;5.78;;
20393;SDS011;10356;50.544;9.642;2023-10-13T13:02:46;8.98;;;5.82;;
20393;SDS011;10356;50.544;9.642;2023-10-13T13:05:15;11.73;;;5.38;;
20393;SDS011;10356;50.544;9.642;2023-10-13T13:07:47;9.32;;;5.53;;
20393;SDS011;10356;50.544;9.642;2023-10-13T13:10:17;13.90;;;5.53;;
20393;SDS011;10356;50.544;9.642;2023-10-13T13:12:45;10.93;;;5.22;;
20393;SDS011;10356;50.544;9.642;2023-10-13T13:15:12;8.65;;;5.40;;
20393;SDS011;10356;50.544;9.642;2023-10-13T13:17:39;10.70;;;5.47;;
20393;SDS011;10356;50.544;9.642;2023-10-13T13:20:06;8.52;;;5.10;;
20393;SDS011;10356;50.544;9.642;2023-10-13T13:22:50;9.57;;;5.18;;
20393;SDS011;10356;50.544;9.642;2023-10-13T13:25:18;11.52;;;5.35;;
20393;SDS011;10356;50.544;9.642;2023-10-13T13:27:52;10.25;;;4.88;;
20393;SDS011;10356;50.544;9.642;2023-10-13T13:30:18;6.65;;;4.70;;
20393;SDS011;10356;50.544;9.642;2023-10-13T13:32:46;10.93;;;5.38;;
20393;SDS011;10356;50.544;9.642;2023-10-13T13:35:13;7.63;;;4.97;;
20393;SDS011;10356;50.544;9.642;2023-10-13T13:37:41;11.48;;;5.25;;
20393;SDS011;10356;50.544;9.642;2023-10-13T13:40:09;11.55;;;5.13;;
20393;SDS011;10356;50.544;9.642;2023-10-13T13:42:40;7.28;;;5.40;;
20393;SDS011;10356;50.544;9.642;2023-10-13T13:45:12;8.65;;;5.72;;
20393;SDS011;10356;50.544;9.642;2023-10-13T13:47:46;11.43;;;5.18;;
20393;SDS011;10356;50.544;9.642;2023-10-13T13:50:18;13.27;;;5.88;;
20393;SDS011;10356;50.544;9.642;2023-10-13T13:52:49;7.25;;;5.28;;
20393;SDS011;10356;50.544;9.642;2023-10-13T13:55:17;10.35;;;5.25;;
20393;SDS011;10356;50.544;9.642;2023-10-13T13:57:44;6.38;;;4.70;;
20393;SDS011;10356;50.544;9.642;2023-10-13T14:00:13;7.97;;;5.43;;
20393;SDS011;10356;50.544;9.642;2023-10-13T14:02:43;9.15;;;4.88;;
20393;SDS011;10356;50.544;9.642;2023-10-13T14:05:12;11.25;;;5.45;;
20393;SDS011;10356;50.544;9.642;2023-10-13T14:07:41;8.32;;;5.13;;
20393;SDS011;10356;50.544;9.642;2023-10-13T14:10:08;8.70;;;5.28;;
20393;SDS011;10356;50.544;9.642;2023-10-13T14:12:42;8.05;;;5.30;;
20393;SDS011;10356;50.544;9.642;2023-10-13T14:15:08;11.40;;;5.47;;
20393;SDS011;10356;50.544;9.642;2023-10-13T14:17:46;11.13;;;5.47;;
20393;SDS011;10356;50.544;9.642;2023-10-13T14:20:14;13.65;;;5.78;;
20393;SDS011;10356;50.544;9.642;2023-10-13T14:22:43;11.02;;;5.25;;
20393;SDS011;10356;50.544;9.642;2023-10-13T14:25:12;12.10;;;5.32;;
20393;SDS011;10356;50.544;9.642;2023-10-13T14:27:39;16.00;;;5.90;;
20393;SDS011;10356;50.544;9.642;2023-10-13T14:30:06;9.70;;;5.45;;
20393;SDS011;10356;50.544;9.642;2023-10-13T14:32:33;9.80;;;5.13;;
20393;SDS011;10356;50.544;9.642;2023-10-13T14:35:07;7.15;;;4.63;;
20393;SDS011;10356;50.544;9.642;2023-10-13T14:37:39;8.40;;;5.22;;
20393;SDS011;10356;50.544;9.642;2023-10-13T14:40:07;9.18;;;5.45;;
20393;SDS011;10356;50.544;9.642;2023-10-13T14:42:38;6.68;;;4.40;;
20393;SDS011;10356;50.544;9.642;2023-10-13T14:45:05;9.35;;;4.70;;
20393;SDS011;10356;50.544;9.642;2023-10-13T14:47:37;8.02;;;4.88;;
20393;SDS011;10356;50.544;9.642;2023-10-13T14:50:07;8.77;;;4.95;;
20393;SDS011;10356;50.544;9.642;2023-10-13T14:52:39;7.25;;;4.75;;
20393;SDS011;10356;50.544;9.642;2023-10-13T14:55:08;7.35;;;4.82;;
20393;SDS011;10356;50.544;9.642;2023-10-13T14:57:44;7.88;;;4.78;;
20393;SDS011;10356;50.544;9.642;2023-10-13T15:00:12;9.40;;;4.80;;
20393;SDS011;10356;50.544;9.642;2023-10-13T15:02:39;8.15;;;5.13;;
20393;SDS011;10356;50.544;9.642;2023-10-13T15:05:09;10.50;;;5.72;;
20393;SDS011;10356;50.544;9.642;2023-10-13T15:07:41;10.30;;;4.97;;